Time;durP1;ratioP1;P1;durP2;ratioP2;P2;SDS_P1;SDS_P2;PMS_P1;PMS_P2;Temp;Humidity;BMP_temperature;BMP_pressure;BME280_temperature;BME280_humidity;BME280_pressure;Samples;Min_cycle;Max_cycle;Signal;HPM_P1;HPM_P2
2022/08/20 00:00:20;;;;;;;20.92;18.75;;;24.50;85.60;;;;;;6135583;23;20149;-87
2022/08/20 00:02:49;;;;;;;20.80;18.60;;;24.50;85.60;;;;;;6136010;23;20515;-87
2022/08/20 00:05:16;;;;;;;20.58;18.48;;;24.50;85.60;;;;;;6135529;23;20205;-87
2022/08/20 00:07:42;;;;;;;19.80;17.75;;;24.50;85.60;;;;;;6160220;23;20135;-86
2022/08/20 00:10:08;;;;;;;20.08;17.98;;;24.40;85.60;;;;;;6159688;23;20306;-87
2022/08/20 00:12:41;;;;;;;21.17;18.98;;;24.40;85.60;;;;;;6135787;23;20292;-87
2022/08/20 00:15:08;;;;;;;20.30;18.20;;;24.40;85.60;;;;;;6135374;23;20162;-87
2022/08/20 00:17:36;;;;;;;20.45;18.35;;;24.40;85.60;;;;;;6135913;23;20200;-88
2022/08/20 00:20:06;;;;;;;20.40;18.30;;;24.40;85.70;;;;;;6136073;23;20201;-87
2022/08/20 00:22:32;;;;;;;19.65;17.75;;;24.40;85.70;;;;;;6159992;23;20585;-87
2022/08/20 00:24:58;;;;;;;20.30;18.20;;;24.40;85.70;;;;;;6135262;23;20197;-88
2022/08/20 00:27:24;;;;;;;20.50;18.40;;;24.40;85.70;;;;;;6159897;23;20509;-87
2022/08/20 00:29:50;;;;;;;20.25;18.02;;;24.40;85.80;;;;;;6135176;23;20146;-87
2022/08/20 00:32:16;;;;;;;20.58;18.45;;;24.40;85.80;;;;;;6135357;23;20158;-87
2022/08/20 00:34:42;;;;;;;19.52;17.52;;;24.40;85.80;;;;;;6159935;23;20135;-88
2022/08/20 00:37:08;;;;;;;20.58;18.48;;;24.40;85.70;;;;;;6135071;23;20150;-88
2022/08/20 00:39:34;;;;;;;20.75;18.65;;;24.40;85.70;;;;;;6159775;23;20177;-87
2022/08/20 00:42:01;;;;;;;19.95;17.85;;;24.40;85.80;;;;;;6159844;23;20237;-87
2022/08/20 00:44:27;;;;;;;20.95;18.77;;;24.40;85.80;;;;;;6134844;23;20178;-86
2022/08/20 00:46:53;;;;;;;19.52;17.52;;;24.40;85.80;;;;;;6160289;23;20210;-87
2022/08/20 00:49:24;;;;;;;20.60;18.35;;;24.40;85.90;;;;;;6134840;23;20181;-87
2022/08/20 00:51:56;;;;;;;20.52;18.42;;;24.40;86.00;;;;;;6135303;23;20147;-87
2022/08/20 00:54:26;;;;;;;21.40;19.20;;;24.40;86.00;;;;;;6135145;23;20213;-87
2022/08/20 00:56:56;;;;;;;19.77;17.77;;;24.40;85.90;;;;;;6134946;23;20648;-87
2022/08/20 00:59:24;;;;;;;20.30;18.23;;;24.40;85.90;;;;;;6160037;23;20135;-88
2022/08/20 01:01:50;;;;;;;20.38;18.27;;;24.40;85.80;;;;;;6134380;23;20217;-87
2022/08/20 01:04:16;;;;;;;20.40;18.33;;;24.30;86.00;;;;;;6134938;23;20610;-87
2022/08/20 01:06:43;;;;;;;21.10;18.90;;;24.40;86.00;;;;;;6160034;23;20135;-87
2022/08/20 01:09:10;;;;;;;20.33;18.23;;;24.30;86.00;;;;;;6159875;23;20182;-87
2022/08/20 01:11:36;;;;;;;20.40;18.30;;;24.30;86.00;;;;;;6135245;23;20153;-87
2022/08/20 01:16:44;;;;;;;20.98;18.85;;;24.40;86.10;;;;;;6162147;23;20143;-88
2022/08/20 01:19:10;;;;;;;20.75;18.65;;;24.30;86.10;;;;;;6135281;23;20147;-86
2022/08/20 01:21:36;;;;;;;20.90;18.70;;;24.30;86.10;;;;;;6159455;23;20577;-86
2022/08/20 01:24:19;;;;;;;21.08;18.98;;;24.30;86.10;;;;;;6159287;23;20193;-86
2022/08/20 01:26:46;;;;;;;21.00;18.90;;;24.30;86.00;;;;;;6185997;23;20139;-87
2022/08/20 01:29:14;;;;;;;20.45;18.25;;;24.30;86.00;;;;;;6159397;23;20214;-87
2022/08/20 01:31:41;;;;;;;21.20;18.98;;;24.30;86.00;;;;;;6159570;23;20134;-87
2022/08/20 01:34:09;;;;;;;20.30;18.10;;;24.30;86.10;;;;;;6134741;23;20561;-86
2022/08/20 01:36:40;;;;;;;21.67;19.38;;;24.30;86.10;;;;;;6159273;23;20167;-87
2022/08/20 01:39:07;;;;;;;20.65;18.52;;;24.30;86.10;;;;;;6159353;23;20169;-88
2022/08/20 01:41:48;;;;;;;20.63;18.52;;;24.30;86.10;;;;;;6135130;23;20138;-86
2022/08/20 01:44:18;;;;;;;20.48;18.27;;;24.30;86.20;;;;;;6159216;23;20261;-88
2022/08/20 01:46:45;;;;;;;19.88;17.88;;;24.30;86.10;;;;;;6110082;23;20155;-87
2022/08/20 01:49:14;;;;;;;21.08;18.85;;;24.30;86.20;;;;;;6159282;23;20637;-88
2022/08/20 01:51:40;;;;;;;21.30;19.10;;;24.30;86.20;;;;;;6134584;23;20158;-87
2022/08/20 01:54:06;;;;;;;20.75;18.67;;;24.20;86.20;;;;;;6135345;23;20147;-88
2022/08/20 01:56:33;;;;;;;19.98;17.98;;;24.30;86.30;;;;;;6159186;23;20471;-87
2022/08/20 01:59:01;;;;;;;20.58;18.38;;;24.20;86.20;;;;;;6135103;23;20146;-87
2022/08/20 02:01:31;;;;;;;20.80;18.55;;;24.30;86.20;;;;;;6159782;23;20145;-87
2022/08/20 02:03:58;;;;;;;20.70;18.50;;;24.30;86.10;;;;;;6134703;23;20171;-86
2022/08/20 02:06:24;;;;;;;20.25;18.23;;;24.30;86.20;;;;;;6159260;23;20141;-87
2022/08/20 02:08:53;;;;;;;21.35;19.08;;;24.30;86.10;;;;;;6159215;23;20564;-87
2022/08/20 02:11:19;;;;;;;21.42;19.23;;;24.30;86.20;;;;;;6159102;23;20685;-86
2022/08/20 02:13:51;;;;;;;20.42;18.30;;;24.30;86.20;;;;;;6136640;23;20181;-86
2022/08/20 02:16:19;;;;;;;20.65;18.55;;;24.30;86.40;;;;;;6162571;23;20138;-87
2022/08/20 02:18:46;;;;;;;20.00;17.92;;;24.30;86.30;;;;;;6161138;23;20188;-87
2022/08/20 02:21:12;;;;;;;22.05;19.42;;;24.30;86.30;;;;;;6161261;23;20139;-86
2022/08/20 02:23:39;;;;;;;20.90;18.80;;;24.30;86.50;;;;;;6161223;23;20174;-88
2022/08/20 02:26:06;;;;;;;21.50;19.27;;;24.20;86.40;;;;;;6111480;23;20232;-87
2022/08/20 02:28:33;;;;;;;20.00;17.90;;;24.20;86.30;;;;;;6135528;23;20151;-87
2022/08/20 02:31:00;;;;;;;21.30;19.10;;;24.30;86.30;;;;;;6087018;23;20154;-87
2022/08/20 02:33:26;;;;;;;21.13;18.92;;;24.20;86.30;;;;;;6136558;23;20143;-87
2022/08/20 02:35:55;;;;;;;21.05;18.85;;;24.20;86.50;;;;;;6136406;23;20150;-87
2022/08/20 02:38:22;;;;;;;20.73;18.52;;;24.20;86.40;;;;;;6161874;23;20131;-87
2022/08/20 02:40:50;;;;;;;20.73;18.58;;;24.20;86.50;;;;;;6135175;23;20180;-88
2022/08/20 02:43:18;;;;;;;20.38;18.35;;;24.20;86.60;;;;;;6088138;23;20179;-87
2022/08/20 02:45:45;;;;;;;20.98;18.77;;;24.20;86.70;;;;;;6112013;23;20155;-87
2022/08/20 02:48:19;;;;;;;20.73;18.63;;;24.20;86.70;;;;;;6161022;23;20510;-87
2022/08/20 02:50:47;;;;;;;20.42;18.38;;;24.20;86.80;;;;;;6137238;23;20155;-88
2022/08/20 02:53:15;;;;;;;20.30;18.27;;;24.20;86.70;;;;;;6161009;23;20626;-87
2022/08/20 02:55:41;;;;;;;20.98;18.88;;;24.20;86.60;;;;;;6161452;23;20139;-87
2022/08/20 02:58:07;;;;;;;20.05;18.05;;;24.10;86.70;;;;;;6135973;23;20161;-87
2022/08/20 03:00:33;;;;;;;20.92;18.83;;;24.20;86.70;;;;;;6111235;23;20158;-87
2022/08/20 03:02:59;;;;;;;20.58;18.48;;;24.20;86.70;;;;;;6160674;23;20173;-87
2022/08/20 03:05:26;;;;;;;19.83;17.80;;;24.10;86.70;;;;;;6160725;23;20131;-87
2022/08/20 03:07:53;;;;;;;20.55;18.35;;;24.20;86.70;;;;;;6136474;23;20151;-87
2022/08/20 03:10:27;;;;;;;21.15;18.92;;;24.10;86.70;;;;;;6160736;23;20688;-86
2022/08/20 03:12:53;;;;;;;21.73;19.45;;;24.10;86.50;;;;;;6135404;23;20486;-86
2022/08/20 03:15:19;;;;;;;21.13;18.92;;;24.20;86.70;;;;;;6136031;23;20167;-87
2022/08/20 03:17:45;;;;;;;21.10;18.77;;;24.20;86.70;;;;;;6160573;23;20162;-88
2022/08/20 03:20:12;;;;;;;20.70;18.60;;;24.10;86.70;;;;;;6160825;23;20551;-86
2022/08/20 03:22:37;;;;;;;21.00;18.80;;;24.10;86.70;;;;;;6136060;23;20151;-88
2022/08/20 03:25:04;;;;;;;19.98;17.88;;;24.10;87.60;;;;;;6160239;23;20147;-87
2022/08/20 03:27:30;;;;;;;19.88;17.80;;;24.10;86.90;;;;;;6135872;23;20205;-87
2022/08/20 03:29:56;;;;;;;21.55;19.35;;;24.10;87.00;;;;;;6160365;23;20147;-87
2022/08/20 03:32:22;;;;;;;21.58;19.27;;;24.10;87.00;;;;;;6160288;23;20571;-87
2022/08/20 03:34:48;;;;;;;20.08;18.08;;;24.10;87.00;;;;;;6186757;23;20131;-87
2022/08/20 03:37:15;;;;;;;20.25;18.10;;;24.10;87.00;;;;;;6160748;23;20158;-87
2022/08/20 03:39:41;;;;;;;21.00;18.73;;;24.10;87.00;;;;;;6136252;23;20147;-87
2022/08/20 03:42:08;;;;;;;19.70;17.70;;;24.10;87.10;;;;;;6160689;23;20139;-86
2022/08/20 03:44:35;;;;;;;21.13;18.92;;;24.10;87.10;;;;;;6134943;23;20208;-87
2022/08/20 03:47:06;;;;;;;21.35;19.15;;;24.10;87.00;;;;;;6160089;23;20151;-87
2022/08/20 03:49:32;;;;;;;20.25;18.15;;;24.10;87.00;;;;;;6160171;23;20222;-87
2022/08/20 03:52:00;;;;;;;20.17;18.05;;;24.10;87.00;;;;;;6135603;23;20479;-86
2022/08/20 03:54:26;;;;;;;21.08;18.75;;;24.10;87.00;;;;;;6160414;23;20444;-86
2022/08/20 03:56:52;;;;;;;21.20;19.10;;;24.10;87.00;;;;;;6135855;23;20150;-88
2022/08/20 03:59:18;;;;;;;19.90;17.90;;;24.10;87.00;;;;;;6135598;23;20571;-87
2022/08/20 04:01:44;;;;;;;21.33;18.98;;;24.10;87.10;;;;;;6160347;23;20154;-87
2022/08/20 04:04:10;;;;;;;20.75;18.55;;;24.10;87.00;;;;;;6160161;23;20236;-87
2022/08/20 04:06:37;;;;;;;20.95;18.75;;;24.10;87.00;;;;;;6135864;23;20566;-88
2022/08/20 04:09:03;;;;;;;19.63;17.65;;;24.10;87.00;;;;;;6135463;23;20155;-88
2022/08/20 04:11:32;;;;;;;20.52;18.38;;;24.10;87.00;;;;;;6186308;23;20139;-87
2022/08/20 04:13:59;;;;;;;19.98;17.88;;;24.00;87.00;;;;;;6135453;23;20155;-87
2022/08/20 04:16:26;;;;;;;20.58;18.38;;;24.10;87.00;;;;;;6109661;23;20165;-87
2022/08/20 04:18:53;;;;;;;20.67;18.48;;;24.10;87.00;;;;;;6110200;23;20490;-88
2022/08/20 04:21:19;;;;;;;21.00;18.80;;;24.10;87.00;;;;;;6110123;23;20161;-87
2022/08/20 04:23:46;;;;;;;20.40;18.30;;;24.10;87.00;;;;;;6110305;23;20186;-86
2022/08/20 04:26:13;;;;;;;20.42;18.40;;;24.10;87.10;;;;;;6109987;23;20241;-88
2022/08/20 04:28:39;;;;;;;20.23;18.13;;;24.10;87.10;;;;;;6160462;23;20149;-87
2022/08/20 04:31:06;;;;;;;19.92;17.83;;;24.10;87.10;;;;;;6159786;23;20135;-87
2022/08/20 04:33:32;;;;;;;20.00;18.00;;;24.10;87.30;;;;;;6135280;23;20147;-86
2022/08/20 04:36:01;;;;;;;20.30;18.30;;;24.10;87.10;;;;;;6159775;23;20138;-87
2022/08/20 04:38:27;;;;;;;20.90;18.70;;;24.00;87.10;;;;;;6160772;23;20147;-87
2022/08/20 04:40:56;;;;;;;20.35;18.15;;;24.00;87.20;;;;;;6135409;23;20151;-87
2022/08/20 04:43:24;;;;;;;21.00;18.80;;;24.10;87.20;;;;;;6136773;23;20232;-88
2022/08/20 04:45:51;;;;;;;21.13;18.92;;;24.10;87.30;;;;;;6135177;23;20208;-86
2022/08/20 04:48:18;;;;;;;20.08;18.02;;;24.00;87.20;;;;;;6135219;23;20199;-87
2022/08/20 04:50:45;;;;;;;20.20;18.10;;;24.00;87.20;;;;;;6135137;23;20139;-87
2022/08/20 04:53:12;;;;;;;22.08;19.35;;;24.00;87.20;;;;;;6135654;23;20234;-87
2022/08/20 04:55:41;;;;;;;19.70;17.70;;;24.00;87.10;;;;;;6159927;23;20139;-86
2022/08/20 04:58:09;;;;;;;21.40;19.20;;;24.00;87.10;;;;;;6160460;23;20135;-87
2022/08/20 05:00:35;;;;;;;19.95;17.92;;;24.00;87.20;;;;;;6135358;23;20155;-88
2022/08/20 05:03:01;;;;;;;21.05;18.63;;;24.00;87.00;;;;;;6186529;23;20245;-87
2022/08/20 05:05:27;;;;;;;21.02;18.45;;;24.00;87.10;;;;;;6159537;23;20633;-87
2022/08/20 05:07:54;;;;;;;20.95;18.85;;;24.00;87.10;;;;;;6159720;23;20127;-88
2022/08/20 05:10:21;;;;;;;20.70;18.60;;;24.00;87.20;;;;;;6135253;23;20197;-88
2022/08/20 05:12:48;;;;;;;21.92;18.98;;;24.00;87.20;;;;;;6159903;23;20209;-87
2022/08/20 05:15:18;;;;;;;21.13;18.92;;;24.00;87.20;;;;;;6159856;23;20600;-87
2022/08/20 05:17:50;;;;;;;21.17;18.98;;;24.00;87.30;;;;;;6110176;23;20177;-88
2022/08/20 05:20:16;;;;;;;20.67;18.50;;;24.10;87.30;;;;;;6185753;23;20162;-88
2022/08/20 05:22:42;;;;;;;20.52;18.45;;;24.00;87.10;;;;;;6135258;23;20147;-87
2022/08/20 05:25:08;;;;;;;23.38;19.08;;;24.00;87.20;;;;;;6159700;23;20157;-88
2022/08/20 05:27:35;;;;;;;21.23;18.92;;;24.10;87.20;;;;;;6134570;23;20578;-88
2022/08/20 05:30:06;;;;;;;21.05;18.85;;;24.00;87.10;;;;;;6159641;23;20142;-88
2022/08/20 05:32:32;;;;;;;20.40;18.20;;;24.00;87.20;;;;;;6135250;23;20155;-87
2022/08/20 05:34:59;;;;;;;22.02;19.25;;;24.00;87.20;;;;;;6134829;23;20202;-87
2022/08/20 05:37:25;;;;;;;20.48;18.30;;;24.00;87.20;;;;;;6159568;23;20138;-87
2022/08/20 05:39:51;;;;;;;20.55;18.38;;;24.00;87.20;;;;;;6134667;23;20162;-87
2022/08/20 05:42:17;;;;;;;20.80;18.70;;;24.00;87.30;;;;;;6159297;23;20166;-87
2022/08/20 05:44:45;;;;;;;19.73;17.73;;;24.00;87.30;;;;;;6159164;23;20155;-87
2022/08/20 05:47:13;;;;;;;21.13;18.83;;;24.00;87.40;;;;;;6159225;23;20179;-87
2022/08/20 05:49:41;;;;;;;20.83;18.70;;;24.00;87.40;;;;;;6109850;23;20511;-88
2022/08/20 05:52:08;;;;;;;20.92;18.67;;;24.00;87.40;;;;;;6109600;23;20154;-87
2022/08/20 05:54:36;;;;;;;20.42;18.23;;;24.00;87.40;;;;;;6109418;23;20159;-87
2022/08/20 05:57:04;;;;;;;20.83;18.67;;;24.00;87.40;;;;;;6085880;23;20241;-87
2022/08/20 05:59:33;;;;;;;22.10;19.80;;;24.00;87.50;;;;;;6109455;23;20158;-86
2022/08/20 06:02:00;;;;;;;20.15;18.15;;;24.00;87.40;;;;;;6110014;23;20232;-88
2022/08/20 06:04:30;;;;;;;21.67;19.38;;;24.00;87.40;;;;;;6133579;23;20182;-87
2022/08/20 06:07:03;;;;;;;20.80;18.70;;;24.00;87.40;;;;;;6110437;23;20151;-87
2022/08/20 06:09:29;;;;;;;21.00;18.80;;;24.00;87.40;;;;;;6109291;23;20201;-88
2022/08/20 06:11:58;;;;;;;20.33;18.17;;;24.00;87.50;;;;;;6159236;23;20465;-87
2022/08/20 06:14:25;;;;;;;20.35;18.27;;;23.90;88.30;;;;;;6110998;23;20483;-87
2022/08/20 06:16:52;;;;;;;20.88;18.67;;;24.00;87.60;;;;;;6133712;23;20166;-87
2022/08/20 06:19:20;;;;;;;20.23;18.15;;;23.90;87.50;;;;;;6109307;23;20162;-87
2022/08/20 06:21:47;;;;;;;20.98;18.77;;;23.90;87.50;;;;;;6133769;23;20162;-87
2022/08/20 06:24:13;;;;;;;21.25;19.05;;;23.90;87.60;;;;;;6109340;23;20189;-86
2022/08/20 06:26:38;;;;;;;20.42;18.38;;;23.90;87.50;;;;;;6134681;23;20182;-88
2022/08/20 06:29:05;;;;;;;19.92;17.83;;;23.90;88.50;;;;;;6159179;23;20495;-86
2022/08/20 06:31:30;;;;;;;19.83;17.83;;;24.00;87.70;;;;;;6159291;23;20127;-88
2022/08/20 06:33:56;;;;;;;20.42;18.33;;;23.90;87.70;;;;;;6134367;23;20194;-87
2022/08/20 06:36:22;;;;;;;20.77;18.65;;;24.00;87.60;;;;;;6134438;23;20165;-88
2022/08/20 06:38:48;;;;;;;20.33;18.23;;;24.00;87.70;;;;;;6159136;23;20135;-88
2022/08/20 06:41:15;;;;;;;20.60;18.50;;;23.90;87.60;;;;;;6159141;23;20154;-87
2022/08/20 06:43:41;;;;;;;21.13;18.88;;;23.90;87.70;;;;;;6159464;23;20213;-87
2022/08/20 06:46:07;;;;;;;19.73;17.63;;;23.90;87.70;;;;;;6158850;23;20139;-88
2022/08/20 06:48:32;;;;;;;20.95;18.75;;;23.90;87.60;;;;;;6134538;23;20159;-87
2022/08/20 06:51:05;;;;;;;20.08;17.98;;;23.90;87.80;;;;;;6134703;23;20151;-87
2022/08/20 06:53:32;;;;;;;19.67;17.65;;;23.90;87.70;;;;;;6109326;23;20151;-88
2022/08/20 06:55:58;;;;;;;20.50;18.40;;;23.90;87.40;;;;;;6159280;23;20645;-87
2022/08/20 06:58:24;;;;;;;20.40;18.23;;;23.90;87.70;;;;;;6134518;23;20163;-87
2022/08/20 07:00:50;;;;;;;20.48;18.38;;;24.00;87.50;;;;;;6160520;23;20135;-87
2022/08/20 07:03:16;;;;;;;19.98;17.88;;;23.90;87.40;;;;;;6135649;23;20182;-88
2022/08/20 07:05:46;;;;;;;20.52;18.30;;;23.90;87.40;;;;;;6160599;23;20181;-87
2022/08/20 07:08:17;;;;;;;21.05;18.85;;;24.00;87.40;;;;;;6110941;23;20147;-87
2022/08/20 07:10:44;;;;;;;20.80;18.60;;;24.00;87.60;;;;;;6112496;23;20282;-87
2022/08/20 07:13:11;;;;;;;20.30;18.10;;;24.00;87.60;;;;;;6110311;23;20161;-87
2022/08/20 07:15:39;;;;;;;18.38;16.45;;;23.90;87.40;;;;;;6135164;23;20218;-87
2022/08/20 07:18:05;;;;;;;18.50;16.50;;;24.00;87.80;;;;;;6110333;23;20250;-87
2022/08/20 07:20:32;;;;;;;17.40;15.52;;;24.10;87.80;;;;;;6135816;23;20170;-87
2022/08/20 07:22:59;;;;;;;17.05;15.35;;;24.10;88.60;;;;;;6159955;23;20135;-87
2022/08/20 07:25:25;;;;;;;15.48;13.88;;;24.10;88.00;;;;;;6135994;23;20155;-86
2022/08/20 07:27:50;;;;;;;14.75;13.20;;;24.10;88.40;;;;;;6136102;23;20529;-87
2022/08/20 07:33:06;;;;;;;17.63;15.75;;;24.10;89.00;;;;;;6164213;23;20193;-86
2022/08/20 07:35:33;;;;;;;14.80;13.30;;;24.00;88.90;;;;;;6086901;23;20150;-87
2022/08/20 07:38:00;;;;;;;15.85;14.15;;;24.00;89.30;;;;;;6087140;23;20158;-87
2022/08/20 07:40:29;;;;;;;14.77;13.27;;;24.00;89.40;;;;;;6087137;23;20200;-87
2022/08/20 07:42:57;;;;;;;14.90;13.40;;;24.00;89.70;;;;;;6135400;23;20165;-88
2022/08/20 07:45:24;;;;;;;13.18;11.88;;;24.10;89.70;;;;;;6135304;23;20154;-87
2022/08/20 07:47:52;;;;;;;14.25;12.93;;;24.00;89.90;;;;;;6160460;23;20130;-88
2022/08/20 07:50:20;;;;;;;12.52;11.32;;;24.10;90.00;;;;;;6160693;23;20131;-87
2022/08/20 07:52:51;;;;;;;14.25;12.68;;;24.10;90.00;;;;;;6136130;23;20579;-88
2022/08/20 07:55:18;;;;;;;12.73;11.52;;;24.00;90.10;;;;;;6135655;23;20197;-86
2022/08/20 07:57:45;;;;;;;13.75;12.35;;;24.00;90.30;;;;;;6160519;23;20181;-87
2022/08/20 08:00:16;;;;;;;12.38;11.15;;;24.10;90.40;;;;;;6160587;23;20128;-88
2022/08/20 08:02:42;;;;;;;13.02;11.73;;;24.00;90.50;;;;;;6110692;23;20155;-89
2022/08/20 08:05:08;;;;;;;13.05;11.75;;;24.00;90.60;;;;;;6160879;23;20628;-87
2022/08/20 08:07:34;;;;;;;11.90;10.70;;;24.00;90.80;;;;;;6136549;23;20161;-88
2022/08/20 08:10:00;;;;;;;12.50;11.25;;;24.00;91.10;;;;;;6159586;23;20186;-88
2022/08/20 08:12:33;;;;;;;11.80;10.60;;;24.00;91.20;;;;;;6135554;23;20178;-87
2022/08/20 08:15:03;;;;;;;11.90;10.70;;;24.00;91.20;;;;;;6088446;23;20587;-87
2022/08/20 08:17:35;;;;;;;13.20;11.80;;;24.00;91.40;;;;;;6112401;23;20456;-86
2022/08/20 08:20:03;;;;;;;13.23;11.85;;;23.90;91.30;;;;;;6111562;23;20226;-87
2022/08/20 08:22:30;;;;;;;13.70;12.05;;;23.90;91.50;;;;;;6136679;23;20161;-87
2022/08/20 08:25:01;;;;;;;13.55;12.15;;;23.90;91.60;;;;;;6136286;23;20190;-87
2022/08/20 08:27:32;;;;;;;12.45;11.18;;;23.90;91.70;;;;;;6089771;23;20207;-86
2022/08/20 08:30:00;;;;;;;13.50;12.18;;;23.80;91.90;;;;;;6138489;23;20209;-87
2022/08/20 08:32:29;;;;;;;12.25;11.05;;;23.80;91.90;;;;;;6136211;23;20158;-87
2022/08/20 08:34:55;;;;;;;12.40;11.18;;;23.80;92.00;;;;;;6112095;23;20165;-88
2022/08/20 08:37:21;;;;;;;11.50;10.10;;;23.80;92.10;;;;;;6136841;23;20238;-88
2022/08/20 08:39:47;;;;;;;12.05;10.85;;;23.80;92.30;;;;;;6160937;23;20131;-87
2022/08/20 08:42:39;;;;;;;12.30;10.88;;;23.80;92.50;;;;;;6162392;23;20552;-88
2022/08/20 08:45:07;;;;;;;12.63;10.60;;;23.80;92.80;;;;;;6137538;23;20639;-86
2022/08/20 08:47:35;;;;;;;12.27;10.82;;;23.80;92.90;;;;;;6136922;23;20482;-87
2022/08/20 08:50:01;;;;;;;11.52;10.07;;;23.70;93.00;;;;;;6136384;23;20142;-87
2022/08/20 08:52:33;;;;;;;11.45;10.30;;;23.80;93.10;;;;;;6161559;23;20135;-87
2022/08/20 08:55:04;;;;;;;10.90;9.80;;;23.80;93.00;;;;;;6112085;23;20158;-87
2022/08/20 08:57:32;;;;;;;11.90;10.70;;;23.80;92.90;;;;;;6087800;23;20159;-87
2022/08/20 08:59:59;;;;;;;11.52;10.35;;;23.80;92.80;;;;;;6137753;23;20154;-88
2022/08/20 09:02:27;;;;;;;11.57;10.38;;;23.80;92.90;;;;;;6139291;23;20209;-87
2022/08/20 09:05:00;;;;;;;11.20;9.73;;;23.80;92.90;;;;;;6089530;23;20212;-85
2022/08/20 09:07:30;;;;;;;12.20;10.68;;;23.80;93.00;;;;;;6142223;23;20170;-85
2022/08/20 09:09:55;;;;;;;11.27;10.18;;;23.90;93.00;;;;;;6139350;23;20202;-86
2022/08/20 09:12:26;;;;;;;11.38;10.30;;;23.90;93.20;;;;;;6139290;23;20593;-85
2022/08/20 09:14:54;;;;;;;12.18;10.93;;;23.80;93.40;;;;;;6139635;23;20151;-87
2022/08/20 09:17:26;;;;;;;11.80;10.60;;;23.80;93.50;;;;;;6138192;23;20482;-86
2022/08/20 09:19:54;;;;;;;11.68;10.55;;;23.80;93.70;;;;;;6137390;23;20158;-87
2022/08/20 09:22:24;;;;;;;12.38;11.13;;;23.80;94.00;;;;;;6088604;23;20212;-86
2022/08/20 09:24:52;;;;;;;13.45;11.45;;;23.80;94.10;;;;;;6137758;23;20240;-86
2022/08/20 09:27:19;;;;;;;14.70;12.55;;;23.90;93.80;;;;;;6137680;23;20586;-87
2022/08/20 09:29:52;;;;;;;13.48;11.27;;;23.90;93.70;;;;;;6162764;23;20127;-88
2022/08/20 09:32:20;;;;;;;12.27;11.07;;;23.90;93.70;;;;;;6163900;23;20177;-87
2022/08/20 09:34:47;;;;;;;12.88;11.57;;;23.80;94.10;;;;;;6138301;23;20161;-86
2022/08/20 09:37:13;;;;;;;14.05;11.80;;;23.80;94.00;;;;;;6162013;23;20139;-88
2022/08/20 09:39:39;;;;;;;13.48;12.13;;;23.90;93.90;;;;;;6162019;23;20214;-87
2022/08/20 09:42:15;;;;;;;11.23;10.13;;;23.90;93.80;;;;;;6137650;23;21000;-86
2022/08/20 09:44:41;;;;;;;12.10;10.90;;;23.90;94.00;;;;;;6136675;23;20165;-88
2022/08/20 09:47:07;;;;;;;12.55;11.25;;;23.80;93.90;;;;;;6161157;23;20619;-87
2022/08/20 09:49:36;;;;;;;11.88;10.77;;;23.90;94.10;;;;;;6161302;23;20229;-87
2022/08/20 09:52:02;;;;;;;11.95;10.30;;;23.80;94.20;;;;;;6161295;23;20149;-87
2022/08/20 09:54:29;;;;;;;12.20;10.90;;;23.90;94.40;;;;;;6161206;23;20222;-85
2022/08/20 09:57:16;;;;;;;13.18;10.93;;;23.80;94.40;;;;;;6161711;23;20138;-87
2022/08/20 09:59:51;;;;;;;11.07;10.02;;;23.80;94.40;;;;;;6160322;23;20185;-87
2022/08/20 10:02:17;;;;;;;11.73;10.60;;;23.80;94.90;;;;;;6135914;23;20145;-87
2022/08/20 10:04:43;;;;;;;12.43;10.63;;;23.70;94.50;;;;;;6137415;23;20175;-87
2022/08/20 10:07:09;;;;;;;11.25;10.05;;;23.80;94.60;;;;;;6136817;23;20598;-87
2022/08/20 10:09:35;;;;;;;11.63;10.45;;;23.80;94.50;;;;;;6130880;23;20199;-87
2022/08/20 10:12:02;;;;;;;12.00;10.80;;;23.80;94.60;;;;;;6132141;23;20158;-86
2022/08/20 10:14:28;;;;;;;12.38;11.15;;;23.90;94.60;;;;;;6131290;23;20135;-86
2022/08/20 10:16:55;;;;;;;12.02;10.63;;;23.80;94.70;;;;;;6107225;23;20242;-87
2022/08/20 10:19:20;;;;;;;12.15;10.95;;;23.80;94.70;;;;;;6131716;23;20162;-87
2022/08/20 10:21:46;;;;;;;12.70;11.35;;;23.80;94.80;;;;;;6130784;23;20159;-86
2022/08/20 10:24:12;;;;;;;12.20;11.00;;;23.80;94.90;;;;;;6107914;23;20262;-87
2022/08/20 10:26:38;;;;;;;13.13;11.70;;;23.70;94.90;;;;;;6107774;23;20155;-86
2022/08/20 10:29:03;;;;;;;12.75;11.55;;;23.80;95.00;;;;;;6130987;23;20132;-87
2022/08/20 10:31:29;;;;;;;12.30;11.00;;;23.70;95.10;;;;;;6132107;23;20235;-87
2022/08/20 10:33:55;;;;;;;11.88;10.65;;;23.80;95.10;;;;;;6107366;23;20158;-86
2022/08/20 10:36:21;;;;;;;13.32;11.73;;;23.80;95.00;;;;;;6157455;23;20159;-87
2022/08/20 10:38:50;;;;;;;12.93;11.73;;;23.80;95.10;;;;;;6135819;23;20199;-87
2022/08/20 10:41:15;;;;;;;13.43;11.50;;;23.80;95.30;;;;;;6134944;23;20156;-87
2022/08/20 10:43:42;;;;;;;13.02;11.73;;;23.80;95.50;;;;;;6108141;23;20179;-86
2022/08/20 10:46:07;;;;;;;12.93;11.63;;;23.80;95.70;;;;;;6107887;23;20152;-88
2022/08/20 10:48:33;;;;;;;12.70;11.45;;;23.80;95.70;;;;;;6108982;23;20486;-87
2022/08/20 10:50:59;;;;;;;13.02;11.60;;;23.80;95.80;;;;;;6135788;23;20612;-87
2022/08/20 10:53:25;;;;;;;13.05;11.30;;;23.80;95.60;;;;;;6136441;23;20165;-86
2022/08/20 10:55:52;;;;;;;12.38;11.18;;;23.80;95.60;;;;;;6135372;23;20439;-88
2022/08/20 10:58:18;;;;;;;15.07;12.10;;;23.80;95.80;;;;;;6133584;23;20586;-88
2022/08/20 11:00:52;;;;;;;13.90;11.35;;;23.80;95.70;;;;;;6110853;23;20155;-86
2022/08/20 11:03:21;;;;;;;14.68;12.18;;;23.70;95.70;;;;;;6103862;23;20175;-87
2022/08/20 11:05:47;;;;;;;12.88;11.38;;;23.80;95.70;;;;;;6075971;23;20585;-88
2022/08/20 11:08:13;;;;;;;14.75;11.68;;;23.90;95.70;;;;;;6077494;23;20232;-87
2022/08/20 11:10:40;;;;;;;17.30;11.63;;;23.90;95.50;;;;;;6103308;23;20279;-87
2022/08/20 11:13:11;;;;;;;15.43;11.10;;;23.90;95.40;;;;;;6056080;23;20163;-86
2022/08/20 11:15:40;;;;;;;15.43;11.77;;;24.00;95.20;;;;;;6055276;23;20627;-86
2022/08/20 11:18:06;;;;;;;14.27;11.48;;;24.00;95.30;;;;;;6077910;23;20224;-87
2022/08/20 11:20:32;;;;;;;12.63;11.43;;;24.00;95.30;;;;;;6076466;23;20578;-87
2022/08/20 11:22:57;;;;;;;13.77;12.07;;;24.00;95.50;;;;;;6052763;23;20592;-87
2022/08/20 11:25:24;;;;;;;13.63;12.23;;;23.90;95.70;;;;;;6076807;23;20290;-87
2022/08/20 11:27:50;;;;;;;13.35;11.95;;;23.90;95.90;;;;;;6053385;23;20200;-87
2022/08/20 11:30:20;;;;;;;14.75;12.07;;;23.80;96.10;;;;;;6076796;23;20144;-87
2022/08/20 11:32:46;;;;;;;14.07;11.95;;;23.80;96.10;;;;;;6076590;23;20156;-87
2022/08/20 11:35:12;;;;;;;14.38;12.18;;;23.80;96.20;;;;;;6103727;23;20190;-87
2022/08/20 11:37:38;;;;;;;15.88;12.10;;;23.80;96.40;;;;;;6106527;23;20155;-87
2022/08/20 11:40:05;;;;;;;13.32;11.93;;;23.80;96.40;;;;;;6130788;23;20575;-87
2022/08/20 11:42:30;;;;;;;13.57;11.77;;;23.80;96.50;;;;;;6106411;23;20155;-87
2022/08/20 11:44:56;;;;;;;16.55;12.45;;;23.80;96.50;;;;;;6130541;23;20173;-87
2022/08/20 11:47:24;;;;;;;14.77;13.27;;;23.80;96.60;;;;;;6106556;23;20143;-87
2022/08/20 11:50:00;;;;;;;13.88;12.35;;;23.70;96.80;;;;;;6106497;23;20456;-87
2022/08/20 11:52:26;;;;;;;13.48;12.07;;;23.80;96.90;;;;;;6131619;23;20237;-87
2022/08/20 11:54:52;;;;;;;13.52;12.13;;;23.80;96.70;;;;;;6131111;23;20584;-87
2022/08/20 11:57:21;;;;;;;14.00;11.93;;;23.80;96.80;;;;;;6130584;23;20148;-87
2022/08/20 11:59:49;;;;;;;13.88;12.15;;;23.80;97.00;;;;;;6106584;23;20154;-88
2022/08/20 12:02:14;;;;;;;14.55;13.05;;;23.70;97.10;;;;;;6130892;23;20136;-87
2022/08/20 12:04:40;;;;;;;17.15;12.75;;;23.80;97.10;;;;;;6130976;23;20214;-87
2022/08/20 12:07:09;;;;;;;14.40;12.85;;;23.80;97.20;;;;;;6130916;23;20191;-87
2022/08/20 12:09:34;;;;;;;13.32;11.93;;;23.70;97.20;;;;;;6135614;23;20193;-87
2022/08/20 12:12:02;;;;;;;13.10;11.75;;;23.70;97.40;;;;;;6135829;23;20146;-87
2022/08/20 12:14:34;;;;;;;15.00;12.70;;;23.70;97.20;;;;;;6085771;23;20155;-87
2022/08/20 12:17:11;;;;;;;14.48;12.80;;;23.80;97.20;;;;;;6112383;23;20162;-87
2022/08/20 12:19:40;;;;;;;14.35;12.35;;;23.90;97.10;;;;;;6086339;23;20155;-88
2022/08/20 12:22:07;;;;;;;14.52;12.95;;;23.80;97.20;;;;;;6061813;23;20158;-87
2022/08/20 12:24:35;;;;;;;15.40;13.25;;;23.80;97.40;;;;;;6085667;23;20551;-88
2022/08/20 12:27:19;;;;;;;15.30;12.93;;;23.80;97.60;;;;;;6061720;23;20205;-87
2022/08/20 12:29:46;;;;;;;14.65;12.77;;;23.80;97.70;;;;;;6070383;23;20230;-86
2022/08/20 12:32:18;;;;;;;15.45;12.35;;;23.80;98.10;;;;;;6046379;23;20188;-87
2022/08/20 12:34:44;;;;;;;14.05;12.52;;;23.70;98.30;;;;;;6022330;23;20157;-86